Detall de PIREP

Printer-friendly versionPDF version

[2016/12/19 17:45:00]
Flight IATA:CT0001
Pilot Number:012
Company ICAO:CAT
Aircraft Type:DC85/A
PAX:0
Aircraft Registration:CARGO
Departing Airport: LEAL
Destination Airport: LEBL
Alternate Airport:LFMP
Online: VATSIM
Route:SOPET UN608 MATEX
Flight Level:F280
No Slew and time accel
No pause
Crash detect
Detect pilot in Cockpit between each 30 and 45 minutes
17:45 Zero fuel Weight: 187232 Lbs, Fuel Weight: 42782 Lbs
17:45 VATSIM:LEAL 191730Z 32007KT 280V360 9999 FEW018 BKN040 12/05 Q1010 NOSIG
17:45 VATSIM:LEBL 191730Z 33012KT 9000 -RA FEW020 BKN048 08/06 Q1013 TEMPO 3000 SHRA FEW020TCU
17:50 Parking Brakes off
17:57 Take-off
17:57 Take off Weight: 228436 Lbs
17:57 Wind: 319º @ 007 Knots Heading: 298º
17:57 POS N38º 16´ 59´´ W000º 33´ 51´´
17:57 Flaps:2 at 173 Knots
17:57 Gear Up: 178 Knots
17:58 Flaps:1 at 173 Knots
17:58 Flaps:0 at 176 Knots
18:08 TOC
18:08 Fuel Weight: 37089 Lb
18:12 Wind:068º@026 Knots Heading: 349º Ground Speed: 448 Knots Altitude 27936 ft
18:27 Wind:022º@019 Knots Heading: 040º Ground Speed: 442 Knots Altitude 28001 ft
18:30 TOD
18:30 Fuel Weight: 32122 Lb
18:39 Flaps:1 at 245 Knots
18:42 Wind:039º@008 Knots Heading: 066º Ground Speed: 237 Knots Altitude 6341 ft
18:42 Flaps:2 at 224 Knots
18:45 Flaps:3 at 219 Knots
18:46 Gear Down: 203 Knots
18:46 Flaps:4 at 203 Knots
18:48 Flaps:5 at 141 Knots
18:52 TouchDown:Rate -449 ft/min Speed: 138 Knots
18:52 VATSIM:LEBL 191830Z 34014KT 9999 -RA FEW020 SCT055 08/06 Q1012 TEMPO 3000 SHRA FEW020TCU
18:52 Land
18:52 Wind:339º@013 Knots
18:52 Heading: 243º
18:52 Flight Duration: 00:55
18:52 Landing Weight: 216714 Lbs
18:52 POS N41º 18´ 02´´ E002º 05´ 19´´
18:57 Parking brakes on
18:57 Block to Block Duration: 01:07
18:57 Final Fuel: 28765 Lbls
18:57 Spent Fuel: 14016 Lbls
18:57 Flight Length: 315 NM
18:57 TOD Land Length: 96 NM

Exportar CSV

Powered by Drupal - Modified by Danger4k